createdAt,value
2018-09-15T00:00:36.062Z,13.70
2018-09-15T00:03:04.153Z,14.65
2018-09-15T00:05:32.381Z,16.90
2018-09-15T00:08:00.405Z,15.93
2018-09-15T00:10:28.570Z,16.77
2018-09-15T00:12:56.864Z,18.90
2018-09-15T00:15:24.921Z,20.50
2018-09-15T00:17:53.974Z,21.35
2018-09-15T00:20:22.058Z,21.52
2018-09-15T00:22:50.185Z,21.70
2018-09-15T00:25:18.334Z,23.20
2018-09-15T00:27:46.448Z,23.57
2018-09-15T00:30:14.517Z,23.10
2018-09-15T00:32:42.556Z,22.55
2018-09-15T00:35:10.658Z,22.27
2018-09-15T00:37:38.717Z,22.85
2018-09-15T00:40:06.909Z,23.97
2018-09-15T00:42:35.043Z,23.62
2018-09-15T00:45:03.243Z,25.02
2018-09-15T00:47:31.324Z,23.00
2018-09-15T00:49:59.467Z,24.10
2018-09-15T00:52:27.690Z,25.30
2018-09-15T00:54:55.716Z,24.85
2018-09-15T00:57:24.127Z,23.57
2018-09-15T00:59:52.177Z,24.80
2018-09-15T01:02:20.282Z,26.37
2018-09-15T01:04:48.343Z,26.25
2018-09-15T01:07:16.392Z,25.72
2018-09-15T01:09:44.516Z,27.10
2018-09-15T01:12:12.535Z,24.47
2018-09-15T01:14:40.749Z,25.88
2018-09-15T01:17:08.808Z,28.67
2018-09-15T01:19:36.886Z,26.82
2018-09-15T01:22:04.964Z,25.48
2018-09-15T01:24:33.019Z,27.67
2018-09-15T01:27:01.112Z,27.52
2018-09-15T01:29:29.147Z,26.80
2018-09-15T01:31:57.272Z,31.35
2018-09-15T01:34:25.328Z,29.67
2018-09-15T01:36:53.368Z,28.73
2018-09-15T01:39:21.468Z,30.15
2018-09-15T01:41:49.516Z,29.60
2018-09-15T01:44:17.612Z,30.72
2018-09-15T01:46:45.767Z,26.62
2018-09-15T01:49:13.867Z,27.77
2018-09-15T01:51:41.956Z,24.00
2018-09-15T01:54:10.095Z,23.40
2018-09-15T01:56:38.183Z,24.05
2018-09-15T01:59:06.240Z,24.80
2018-09-15T02:01:34.376Z,27.60
2018-09-15T02:04:02.495Z,22.85
2018-09-15T02:06:30.507Z,23.75
2018-09-15T02:08:58.673Z,23.87
2018-09-15T02:11:26.700Z,24.23
2018-09-15T02:13:54.998Z,25.40
2018-09-15T02:16:23.163Z,24.60
2018-09-15T02:18:51.274Z,24.70
2018-09-15T02:21:19.302Z,24.00
2018-09-15T02:23:47.409Z,25.23
2018-09-15T02:26:15.456Z,26.20
2018-09-15T02:28:43.568Z,28.05
2018-09-15T02:31:11.604Z,27.50
2018-09-15T02:33:39.675Z,27.42
2018-09-15T02:36:07.760Z,27.90
2018-09-15T02:38:35.810Z,27.42
2018-09-15T02:41:04.019Z,27.30
2018-09-15T02:43:32.066Z,29.63
2018-09-15T02:46:00.174Z,27.70
2018-09-15T02:48:28.220Z,29.57
2018-09-15T02:50:56.332Z,31.60
2018-09-15T02:53:24.392Z,29.92
2018-09-15T02:55:52.431Z,31.80
2018-09-15T02:58:20.535Z,33.67
2018-09-15T03:00:48.597Z,34.95
2018-09-15T03:03:16.786Z,30.93
2018-09-15T03:05:44.910Z,33.75
2018-09-15T03:08:13.093Z,36.57
2018-09-15T03:10:41.268Z,40.33
2018-09-15T03:13:09.459Z,25.90
2018-09-15T03:15:37.568Z,25.48
2018-09-15T03:18:05.815Z,25.45
2018-09-15T03:20:33.974Z,27.00
2018-09-15T03:23:02.172Z,24.37
2018-09-15T03:25:30.268Z,28.60
2018-09-15T03:27:58.333Z,31.37
2018-09-15T03:30:26.380Z,32.35
2018-09-15T03:32:54.594Z,26.23
2018-09-15T03:35:22.620Z,24.92
2018-09-15T03:37:50.740Z,25.02
2018-09-15T03:40:18.882Z,29.37
2018-09-15T03:42:46.975Z,27.60
2018-09-15T03:45:15.050Z,28.42
2018-09-15T03:47:43.204Z,30.35
2018-09-15T03:50:11.396Z,29.82
2018-09-15T03:52:39.451Z,28.07
2018-09-15T03:55:07.546Z,31.05
2018-09-15T03:57:35.600Z,32.53
2018-09-15T04:00:03.961Z,34.25
2018-09-15T04:02:32.062Z,36.23
2018-09-15T04:05:00.228Z,35.30
2018-09-15T04:07:28.311Z,38.70
2018-09-15T04:09:56.492Z,36.80
2018-09-15T04:12:24.544Z,41.33
2018-09-15T04:14:52.631Z,35.27
2018-09-15T04:17:20.723Z,36.20
2018-09-15T04:19:48.779Z,29.50
2018-09-15T04:22:16.969Z,33.28
2018-09-15T04:24:45.101Z,32.42
2018-09-15T04:27:13.214Z,32.90
2018-09-15T04:29:47.226Z,33.80
2018-09-15T04:32:15.315Z,33.78
2018-09-15T04:34:43.554Z,36.13
2018-09-15T04:37:11.743Z,37.38
2018-09-15T04:39:39.829Z,41.75
2018-09-15T04:42:07.876Z,39.23
2018-09-15T04:44:35.932Z,35.20
2018-09-15T04:47:04.015Z,37.03
2018-09-15T04:49:32.112Z,39.03
2018-09-15T04:52:00.360Z,38.60
2018-09-15T04:54:28.464Z,40.90
2018-09-15T04:56:56.630Z,42.85
2018-09-15T04:59:24.918Z,43.75
2018-09-15T05:01:52.999Z,40.63
2018-09-15T05:04:21.044Z,40.35
2018-09-15T05:06:49.148Z,39.63
2018-09-15T05:09:17.205Z,35.65
2018-09-15T05:11:45.300Z,38.42
2018-09-15T05:14:13.478Z,34.00
2018-09-15T05:16:41.531Z,34.23
2018-09-15T05:19:09.704Z,36.83
2018-09-15T05:21:37.752Z,35.70
2018-09-15T05:24:05.932Z,39.85
2018-09-15T05:26:34.032Z,35.80
2018-09-15T05:29:02.087Z,37.08
2018-09-15T05:31:30.297Z,37.08
2018-09-15T05:33:58.352Z,35.15
2018-09-15T05:36:26.423Z,34.75
2018-09-15T05:38:54.596Z,37.03
2018-09-15T05:41:22.651Z,37.88
2018-09-15T05:43:50.745Z,39.05
2018-09-15T05:46:18.911Z,41.77
2018-09-15T05:48:47.092Z,38.40
2018-09-15T05:51:15.155Z,37.30
2018-09-15T05:53:43.342Z,39.70
2018-09-15T05:56:11.556Z,36.60
2018-09-15T05:58:39.599Z,36.08
2018-09-15T06:01:07.757Z,40.30
2018-09-15T06:03:35.845Z,39.45
2018-09-15T06:06:04.233Z,39.58
2018-09-15T06:08:32.277Z,39.18
2018-09-15T06:11:00.376Z,41.53
2018-09-15T06:13:28.527Z,40.80
2018-09-15T06:15:56.832Z,37.70
2018-09-15T06:18:24.879Z,38.85
2018-09-15T06:20:52.971Z,39.63
2018-09-15T06:23:21.176Z,38.30
2018-09-15T06:25:49.244Z,41.83
2018-09-15T06:28:17.285Z,37.30
2018-09-15T06:30:45.343Z,38.92
2018-09-15T06:33:13.452Z,41.23
2018-09-15T06:35:41.585Z,40.70
2018-09-15T06:38:09.700Z,40.40
2018-09-15T06:40:37.732Z,42.43
2018-09-15T06:43:05.827Z,45.63
2018-09-15T06:45:34.041Z,42.67
2018-09-15T06:48:02.193Z,40.85
2018-09-15T06:50:30.236Z,44.50
2018-09-15T06:52:58.589Z,44.95
2018-09-15T06:55:26.604Z,42.30
2018-09-15T06:57:54.700Z,39.33
2018-09-15T07:00:22.734Z,41.28
2018-09-15T07:02:50.863Z,42.38
2018-09-15T07:05:19.026Z,43.52
2018-09-15T07:07:47.054Z,40.25
2018-09-15T07:10:15.253Z,39.05
2018-09-15T07:12:43.310Z,39.25
2018-09-15T07:15:11.505Z,39.25
2018-09-15T07:17:39.794Z,38.63
2018-09-15T07:20:07.893Z,39.00
2018-09-15T07:22:35.928Z,40.55
2018-09-15T07:25:04.537Z,37.53
2018-09-15T07:27:32.710Z,41.35
2018-09-15T07:30:00.768Z,39.73
2018-09-15T07:32:28.826Z,38.13
2018-09-15T07:34:56.894Z,38.20
2018-09-15T07:37:25.086Z,37.73
2018-09-15T07:39:53.261Z,38.07
2018-09-15T07:42:21.328Z,41.70
2018-09-15T07:44:49.593Z,39.80
2018-09-15T07:47:17.563Z,37.50
2018-09-15T07:49:45.750Z,39.40
2018-09-15T07:52:14.036Z,40.38
2018-09-15T07:54:42.069Z,41.08
2018-09-15T07:57:10.261Z,38.90
2018-09-15T07:59:38.460Z,36.23
2018-09-15T08:02:11.154Z,35.70
2018-09-15T08:04:39.237Z,34.98
2018-09-15T08:07:07.279Z,36.25
2018-09-15T08:09:35.433Z,37.25
2018-09-15T08:12:03.529Z,35.70
2018-09-15T08:14:31.789Z,32.45
2018-09-15T08:17:00.094Z,34.70
2018-09-15T08:19:28.237Z,36.50
2018-09-15T08:21:56.359Z,35.92
2018-09-15T08:24:24.395Z,34.45
2018-09-15T08:26:52.492Z,35.28
2018-09-15T08:29:20.555Z,31.77
2018-09-15T08:31:48.867Z,32.30
2018-09-15T08:34:16.890Z,30.30
2018-09-15T08:36:44.913Z,29.90
2018-09-15T08:39:13.036Z,31.87
2018-09-15T08:41:41.137Z,29.37
2018-09-15T08:44:09.183Z,32.25
2018-09-15T08:46:37.286Z,30.92
2018-09-15T08:49:05.972Z,30.15
2018-09-15T08:51:34.036Z,30.37
2018-09-15T08:54:02.186Z,31.33
2018-09-15T08:56:30.391Z,31.48
2018-09-15T08:58:58.436Z,30.55
2018-09-15T09:01:26.536Z,29.35
2018-09-15T09:03:54.636Z,29.95
2018-09-15T09:06:22.801Z,30.37
2018-09-15T09:08:51.055Z,30.23
2018-09-15T09:11:19.108Z,28.85
2018-09-15T09:13:47.218Z,26.90
2018-09-15T09:16:15.253Z,27.98
2018-09-15T09:18:43.574Z,28.62
2018-09-15T09:21:11.612Z,27.60
2018-09-15T09:23:39.803Z,28.27
2018-09-15T09:26:07.875Z,29.60
2018-09-15T09:28:36.076Z,28.30
2018-09-15T09:31:04.145Z,26.95
2018-09-15T09:33:32.184Z,28.62
2018-09-15T09:36:00.291Z,27.50
2018-09-15T09:38:28.319Z,27.67
2018-09-15T09:40:56.773Z,26.65
2018-09-15T09:43:24.799Z,28.15
2018-09-15T09:45:52.972Z,25.65
2018-09-15T09:48:21.069Z,27.25
2018-09-15T09:50:49.143Z,27.20
2018-09-15T09:53:17.276Z,26.68
2018-09-15T09:55:45.363Z,22.20
2018-09-15T09:58:13.525Z,23.23
2018-09-15T10:00:47.319Z,22.15
2018-09-15T10:03:15.303Z,21.75
2018-09-15T10:05:43.524Z,20.70
2018-09-15T10:08:11.551Z,19.75
2018-09-15T10:10:39.752Z,20.57
2018-09-15T10:13:07.809Z,21.10
2018-09-15T10:15:35.900Z,21.13
2018-09-15T10:18:03.945Z,21.00
2018-09-15T10:20:32.048Z,21.45
2018-09-15T10:23:00.099Z,20.95
2018-09-15T10:25:28.295Z,19.62
2018-09-15T10:27:56.540Z,20.68
2018-09-15T10:30:24.744Z,17.70
2018-09-15T10:32:52.821Z,20.25
2018-09-15T10:35:21.167Z,18.62
2018-09-15T10:37:49.376Z,19.42
2018-09-15T10:40:17.422Z,21.75
2018-09-15T10:42:45.522Z,21.48
2018-09-15T10:45:13.566Z,21.82
2018-09-15T10:47:41.758Z,20.65
2018-09-15T10:50:09.918Z,20.50
2018-09-15T10:52:38.041Z,19.25
2018-09-15T10:55:06.173Z,19.20
2018-09-15T10:57:34.262Z,20.35
2018-09-15T11:00:02.320Z,19.02
2018-09-15T11:02:30.484Z,17.90
2018-09-15T11:04:58.560Z,17.40
2018-09-15T11:07:26.729Z,19.20
2018-09-15T11:09:54.728Z,19.90
2018-09-15T11:12:22.796Z,18.80
2018-09-15T11:14:50.899Z,18.73
2018-09-15T11:17:18.936Z,18.50
2018-09-15T11:19:47.043Z,17.30
2018-09-15T11:22:15.084Z,17.35
2018-09-15T11:24:43.288Z,14.57
2018-09-15T11:27:11.344Z,14.90
2018-09-15T11:29:39.515Z,15.00
2018-09-15T11:32:07.692Z,13.60
2018-09-15T11:34:35.844Z,13.85
2018-09-15T11:37:04.328Z,13.60
2018-09-15T11:39:32.407Z,11.50
2018-09-15T11:42:00.519Z,13.20
2018-09-15T11:44:28.555Z,12.20
2018-09-15T11:46:56.643Z,13.77
2018-09-15T11:49:24.712Z,14.18
2018-09-15T11:51:52.899Z,11.60
2018-09-15T11:54:21.076Z,13.35
2018-09-15T11:56:49.227Z,11.80
2018-09-15T11:59:17.315Z,12.90
2018-09-15T12:01:45.385Z,13.77
2018-09-15T12:04:13.481Z,12.50
2018-09-15T12:06:41.529Z,14.30
2018-09-15T12:09:10.015Z,14.13
2018-09-15T12:11:38.380Z,13.50
2018-09-15T12:14:06.663Z,14.10
2018-09-15T12:16:34.643Z,12.53
2018-09-15T12:19:02.832Z,12.50
2018-09-15T12:21:30.924Z,12.18
2018-09-15T12:23:58.970Z,14.45
2018-09-15T12:26:27.171Z,14.40
2018-09-15T12:28:55.811Z,13.98
2018-09-15T12:31:24.029Z,11.90
2018-09-15T12:33:52.035Z,10.60
2018-09-15T12:36:20.076Z,12.60
2018-09-15T12:38:48.209Z,9.58
2018-09-15T12:41:16.309Z,9.43
2018-09-15T12:43:44.382Z,10.10
2018-09-15T12:46:12.536Z,11.00
2018-09-15T12:48:40.749Z,9.80
2018-09-15T12:51:09.026Z,9.55
2018-09-15T12:53:37.077Z,9.90
2018-09-15T12:56:05.256Z,9.23
2018-09-15T12:58:33.348Z,9.25
2018-09-15T13:01:01.482Z,9.95
2018-09-15T13:03:29.692Z,9.58
2018-09-15T13:05:57.747Z,10.67
2018-09-15T13:08:25.948Z,8.80
2018-09-15T13:10:53.903Z,8.50
2018-09-15T13:13:21.975Z,9.03
2018-09-15T13:15:50.035Z,7.97
2018-09-15T13:18:18.124Z,9.10
2018-09-15T19:39:10.866Z,13.95
2018-09-15T19:41:38.989Z,13.22
2018-09-15T19:44:07.290Z,11.83
2018-09-15T19:46:35.908Z,11.97
2018-09-15T19:49:04.037Z,12.47
2018-09-15T19:51:32.145Z,12.85
2018-09-15T19:54:00.216Z,12.00
2018-09-15T19:56:28.278Z,13.05
2018-09-15T19:58:56.457Z,30.12
2018-09-15T20:01:24.755Z,21.73
2018-09-15T20:03:52.803Z,13.60
2018-09-15T20:06:20.961Z,12.95
2018-09-15T20:08:49.088Z,13.20
2018-09-15T20:11:17.537Z,11.53
2018-09-15T20:13:45.684Z,10.80
2018-09-15T20:16:12.359Z,11.23
2018-09-15T20:18:39.161Z,12.37
2018-09-15T20:21:05.944Z,13.58
2018-09-15T20:23:33.996Z,15.00
2018-09-15T20:26:02.084Z,14.53
2018-09-15T20:28:30.239Z,13.80
2018-09-15T20:30:58.443Z,15.13
2018-09-15T20:33:26.489Z,13.55
2018-09-15T20:35:54.801Z,13.00
2018-09-15T20:38:22.940Z,13.40
2018-09-15T20:40:51.045Z,13.93
2018-09-15T20:43:19.084Z,14.07
2018-09-15T20:45:47.564Z,11.60
2018-09-15T20:48:15.856Z,12.47
2018-09-15T20:50:43.957Z,12.53
2018-09-15T20:53:12.107Z,14.33
2018-09-15T20:55:40.300Z,15.83
2018-09-15T20:58:08.348Z,16.70
2018-09-15T21:00:36.557Z,14.50
2018-09-15T21:03:04.626Z,15.58
2018-09-15T21:05:32.701Z,16.62
2018-09-15T21:08:00.826Z,15.38
2018-09-15T21:10:28.949Z,17.07
2018-09-15T21:12:57.092Z,15.20
2018-09-15T21:15:25.202Z,14.95
2018-09-15T21:17:53.247Z,14.43
2018-09-15T21:20:21.324Z,15.35
2018-09-15T21:22:49.403Z,16.00
2018-09-15T21:25:17.471Z,16.05
2018-09-15T21:27:45.563Z,15.90
2018-09-15T21:30:13.601Z,15.15
2018-09-15T21:32:41.710Z,17.17
2018-09-15T21:35:09.800Z,16.55
2018-09-15T21:37:37.876Z,16.20
2018-09-15T21:40:06.188Z,16.25
2018-09-15T21:42:34.525Z,15.55
2018-09-15T21:45:02.663Z,14.83
2018-09-15T21:47:31.182Z,15.33
2018-09-15T21:49:59.330Z,15.43
2018-09-15T21:52:27.483Z,14.83
2018-09-15T21:54:55.601Z,15.35
2018-09-15T21:57:23.835Z,17.10
2018-09-15T21:59:51.948Z,16.42
2018-09-15T22:02:21.948Z,18.35
2018-09-15T22:04:50.238Z,17.20
2018-09-15T22:07:18.531Z,16.52
2018-09-15T22:09:46.562Z,16.75
2018-09-15T22:12:14.719Z,16.70
2018-09-15T22:14:42.820Z,16.77
2018-09-15T22:17:11.060Z,15.80
2018-09-15T22:19:39.249Z,19.27
2018-09-15T22:22:07.433Z,17.37
2018-09-15T22:24:35.416Z,16.10
2018-09-15T22:27:03.503Z,16.32
2018-09-15T22:29:31.556Z,13.75
2018-09-15T22:31:59.771Z,15.30
2018-09-15T22:34:27.835Z,13.35
2018-09-15T22:36:56.000Z,15.58
2018-09-15T22:39:24.052Z,19.87
2018-09-15T22:41:52.152Z,26.48
2018-09-15T22:44:20.344Z,22.73
2018-09-15T22:46:48.363Z,24.10
2018-09-15T22:49:16.484Z,23.60
2018-09-15T22:51:44.724Z,22.90
2018-09-15T22:54:12.774Z,22.05
2018-09-15T22:56:40.772Z,22.30
2018-09-15T22:59:08.872Z,21.70
2018-09-15T23:01:36.944Z,21.60
2018-09-15T23:04:07.065Z,17.10
2018-09-15T23:06:35.399Z,16.70
2018-09-15T23:09:04.564Z,24.23
2018-09-15T23:11:32.653Z,24.85
2018-09-15T23:14:00.655Z,30.20
2018-09-15T23:16:28.763Z,30.02
2018-09-15T23:18:56.964Z,27.82
2018-09-15T23:21:25.110Z,24.82
2018-09-15T23:23:53.195Z,20.27
2018-09-15T23:26:21.227Z,20.43
2018-09-15T23:28:49.560Z,20.82
2018-09-15T23:31:17.691Z,23.95
2018-09-15T23:33:45.800Z,26.17
2018-09-15T23:36:13.880Z,24.87
2018-09-15T23:38:41.956Z,24.05
2018-09-15T23:41:10.326Z,25.85
2018-09-15T23:43:38.900Z,23.15
2018-09-15T23:46:07.393Z,24.90
2018-09-15T23:48:35.550Z,28.98
2018-09-15T23:51:03.896Z,28.85
2018-09-15T23:53:32.004Z,28.07
2018-09-15T23:56:00.193Z,22.42
2018-09-15T23:58:28.432Z,24.95
